createdAt,value
2018-06-20T00:00:40.535Z,80.62
2018-06-20T00:03:10.638Z,80.63
2018-06-20T00:05:40.738Z,81.17
2018-06-20T00:08:10.393Z,81.52
2018-06-20T00:10:40.510Z,81.48
2018-06-20T00:13:10.533Z,81.38
2018-06-20T00:15:40.648Z,81.43
2018-06-20T00:18:10.641Z,81.43
2018-06-20T00:20:40.745Z,81.44
2018-06-20T00:23:10.413Z,81.48
2018-06-20T00:25:41.422Z,81.31
2018-06-20T00:28:11.451Z,81.81
2018-06-20T00:30:41.516Z,81.71
2018-06-20T00:33:11.583Z,81.94
2018-06-20T00:35:41.682Z,81.59
2018-06-20T00:38:11.709Z,81.99
2018-06-20T00:40:41.749Z,81.90
2018-06-20T00:43:11.820Z,82.51
2018-06-20T00:45:41.963Z,82.62
2018-06-20T00:48:11.992Z,82.38
2018-06-20T00:50:42.077Z,82.61
2018-06-20T00:53:12.097Z,82.17
2018-06-20T00:55:58.617Z,82.26
2018-06-20T00:58:28.658Z,82.27
2018-06-20T01:00:58.341Z,82.59
2018-06-20T01:03:28.409Z,82.54
2018-06-20T01:05:58.516Z,82.21
2018-06-20T01:08:28.160Z,82.74
2018-06-20T01:10:58.269Z,82.48
2018-06-20T01:13:28.357Z,82.93
2018-06-20T01:15:58.457Z,83.28
2018-06-20T01:18:28.473Z,83.11
2018-06-20T01:20:58.579Z,83.39
2018-06-20T01:23:28.632Z,83.44
2018-06-20T01:25:58.706Z,83.09
2018-06-20T01:28:28.807Z,82.94
2018-06-20T01:30:58.891Z,83.48
2018-06-20T01:33:28.920Z,83.34
2018-06-20T01:35:59.022Z,83.10
2018-06-20T01:38:29.131Z,83.17
2018-06-20T01:40:59.206Z,83.22
2018-06-20T01:43:29.251Z,83.37
2018-06-20T01:45:59.323Z,83.32
2018-06-20T01:48:29.380Z,83.65
2018-06-20T01:50:59.481Z,83.27
2018-06-20T01:53:29.457Z,83.21
2018-06-20T01:55:59.561Z,83.37
2018-06-20T01:58:29.660Z,83.30
2018-06-20T02:00:59.755Z,83.46
2018-06-20T02:03:29.837Z,83.17
2018-06-20T02:05:59.935Z,83.39
2018-06-20T02:08:29.996Z,83.10
2018-06-20T02:11:00.061Z,83.20
2018-06-20T02:13:30.095Z,83.57
2018-06-20T02:16:00.160Z,83.08
2018-06-20T02:18:30.167Z,82.85
2018-06-20T02:21:00.257Z,83.21
2018-06-20T02:23:30.307Z,83.24
2018-06-20T02:26:00.388Z,83.06
2018-06-20T02:28:30.448Z,83.83
2018-06-20T02:31:00.526Z,83.35
2018-06-20T02:33:30.598Z,83.46
2018-06-20T02:36:07.448Z,83.57
2018-06-20T02:38:37.129Z,83.66
2018-06-20T02:41:07.268Z,83.65
2018-06-20T02:43:37.310Z,83.67
2018-06-20T02:46:07.471Z,83.93
2018-06-20T02:48:37.501Z,83.90
2018-06-20T02:51:07.639Z,83.56
2018-06-20T02:53:37.693Z,83.46
2018-06-20T02:56:07.808Z,83.69
2018-06-20T02:58:37.870Z,83.83
2018-06-20T03:01:08.460Z,83.97
2018-06-20T03:03:38.536Z,83.87
2018-06-20T03:06:08.589Z,83.94
2018-06-20T03:08:38.644Z,84.57
2018-06-20T03:11:08.277Z,84.13
2018-06-20T03:13:38.351Z,84.25
2018-06-20T03:16:08.392Z,84.57
2018-06-20T03:18:38.480Z,84.62
2018-06-20T03:21:08.522Z,84.67
2018-06-20T03:23:38.599Z,84.81
2018-06-20T03:26:08.619Z,84.80
2018-06-20T03:28:38.701Z,84.84
2018-06-20T03:31:08.336Z,84.48
2018-06-20T03:33:38.442Z,84.60
2018-06-20T03:36:08.517Z,84.46
2018-06-20T03:38:38.588Z,84.98
2018-06-20T03:41:08.717Z,85.22
2018-06-20T03:43:38.447Z,84.91
2018-06-20T03:46:09.599Z,85.01
2018-06-20T03:48:39.676Z,84.87
2018-06-20T03:51:09.721Z,84.80
2018-06-20T03:53:39.391Z,85.04
2018-06-20T03:56:09.527Z,85.07
2018-06-20T03:58:39.586Z,85.13
2018-06-20T04:01:09.589Z,85.16
2018-06-20T04:03:39.249Z,85.39
2018-06-20T04:06:09.262Z,85.32
2018-06-20T04:08:39.304Z,85.48
2018-06-20T04:11:09.338Z,86.01
2018-06-20T04:13:39.390Z,85.73
2018-06-20T04:16:08.984Z,85.88
2018-06-20T04:18:45.656Z,85.59
2018-06-20T04:21:16.793Z,85.94
2018-06-20T04:23:46.838Z,86.44
2018-06-20T04:26:16.898Z,86.78
2018-06-20T04:28:46.958Z,86.38
2018-06-20T04:31:17.256Z,87.02
2018-06-20T04:33:47.335Z,87.19
2018-06-20T04:36:17.389Z,86.91
2018-06-20T04:38:47.548Z,86.53
2018-06-20T04:41:17.605Z,86.34
2018-06-20T04:43:47.672Z,86.15
2018-06-20T04:46:17.737Z,86.00
2018-06-20T04:48:47.418Z,85.73
2018-06-20T04:51:17.482Z,85.27
2018-06-20T04:53:47.552Z,83.34
2018-06-20T04:56:17.571Z,82.18
2018-06-20T04:58:47.668Z,80.29
2018-06-20T05:01:17.782Z,79.53
2018-06-20T05:03:47.905Z,78.06
2018-06-20T05:06:17.980Z,77.77
2018-06-20T05:08:48.040Z,77.32
2018-06-20T05:11:18.107Z,75.16
2018-06-20T05:13:48.181Z,74.60
2018-06-20T05:16:18.278Z,73.43
2018-06-20T05:18:48.372Z,73.65
2018-06-20T05:21:18.418Z,72.27
2018-06-20T05:23:48.528Z,72.86
2018-06-20T05:26:18.582Z,72.82
2018-06-20T05:28:48.341Z,72.80
2018-06-20T05:31:18.404Z,73.15
2018-06-20T05:33:48.501Z,71.60
2018-06-20T05:36:19.091Z,70.85
2018-06-20T05:38:49.178Z,70.97
2018-06-20T05:41:19.212Z,70.21
2018-06-20T05:43:48.932Z,70.07
2018-06-20T05:46:18.977Z,69.61
2018-06-20T05:48:50.128Z,69.68
2018-06-20T05:51:20.148Z,69.53
2018-06-20T05:53:50.230Z,69.15
2018-06-20T05:56:20.224Z,69.35
2018-06-20T05:58:50.259Z,69.02
2018-06-20T06:01:20.285Z,68.20
2018-06-20T06:03:50.345Z,68.05
2018-06-20T06:06:20.345Z,68.31
2018-06-20T06:08:50.354Z,68.31
2018-06-20T06:11:20.342Z,68.07
2018-06-20T06:13:50.410Z,68.50
2018-06-20T06:16:20.399Z,67.69
2018-06-20T06:18:50.460Z,67.45
2018-06-20T06:21:20.514Z,68.09
2018-06-20T06:23:50.498Z,66.90
2018-06-20T06:26:20.552Z,66.83
2018-06-20T06:28:50.547Z,67.40
2018-06-20T06:31:20.179Z,66.93
2018-06-20T06:33:50.179Z,66.03
2018-06-20T06:36:20.228Z,64.90
2018-06-20T06:38:50.230Z,65.76
2018-06-20T06:41:20.242Z,66.65
2018-06-20T06:43:50.241Z,66.50
2018-06-20T06:46:20.284Z,66.28
2018-06-20T06:48:49.867Z,65.52
2018-06-20T06:51:19.914Z,66.50
2018-06-20T06:53:49.905Z,64.42
2018-06-20T06:56:19.944Z,63.78
2018-06-20T06:58:49.930Z,62.41
2018-06-20T07:01:19.981Z,61.19
2018-06-20T07:03:50.002Z,61.66
2018-06-20T07:06:20.047Z,60.31
2018-06-20T07:08:50.056Z,62.96
2018-06-20T07:11:20.088Z,62.33
2018-06-20T07:13:50.080Z,63.56
2018-06-20T07:16:20.122Z,60.73
2018-06-20T07:18:50.129Z,61.39
2018-06-20T07:21:20.977Z,60.47
2018-06-20T07:23:50.982Z,61.30
2018-06-20T07:26:21.201Z,61.10
2018-06-20T07:28:51.466Z,61.02
2018-06-20T07:31:21.497Z,60.74
2018-06-20T07:33:51.488Z,62.10
2018-06-20T07:36:21.929Z,59.23
2018-06-20T07:38:51.908Z,61.30
2018-06-20T07:41:21.928Z,57.53
2018-06-20T07:43:52.032Z,60.59
2018-06-20T07:46:22.079Z,58.46
2018-06-20T07:48:52.038Z,60.94
2018-06-20T07:51:22.130Z,56.15
2018-06-20T07:53:52.149Z,56.43
2018-06-20T07:56:22.203Z,56.43
2018-06-20T07:58:57.104Z,54.93
2018-06-20T08:01:48.902Z,56.17
2018-06-20T08:04:24.037Z,56.66
2018-06-20T08:06:59.146Z,55.94
2018-06-20T08:09:34.385Z,56.59
2018-06-20T08:12:09.581Z,54.64
2018-06-20T08:14:44.763Z,53.86
2018-06-20T08:17:19.779Z,52.80
2018-06-20T08:19:52.141Z,59.06
2018-06-20T08:22:22.643Z,51.73
2018-06-20T08:25:03.640Z,52.15
2018-06-20T08:27:34.762Z,50.51
2018-06-20T08:30:07.872Z,52.66
2018-06-20T08:32:37.936Z,53.52
2018-06-20T08:35:07.967Z,55.62
2018-06-20T08:37:38.046Z,52.75
2018-06-20T08:40:08.191Z,51.05
2018-06-20T08:42:38.216Z,51.90
2018-06-20T08:45:08.215Z,49.94
2018-06-20T08:47:38.320Z,52.05
2018-06-20T08:50:08.471Z,49.51
2018-06-20T08:52:38.635Z,52.52
2018-06-20T08:55:08.696Z,50.17
2018-06-20T08:57:38.717Z,50.17
2018-06-20T09:00:09.099Z,48.97
2018-06-20T09:02:39.180Z,51.19
2018-06-20T09:05:14.243Z,48.72
2018-06-20T09:07:49.287Z,49.07
2018-06-20T09:10:24.400Z,50.31
2018-06-20T09:12:59.571Z,49.56
2018-06-20T09:15:34.658Z,49.88
2018-06-20T09:18:09.777Z,48.00
2018-06-20T09:20:39.791Z,49.05
2018-06-20T09:23:09.818Z,48.32
2018-06-20T09:25:39.821Z,50.85
2018-06-20T09:28:10.030Z,45.40
2018-06-20T09:30:40.021Z,50.33
2018-06-20T09:33:10.071Z,52.70
2018-06-20T09:35:40.105Z,46.38
2018-06-20T09:38:10.151Z,47.08
2018-06-20T09:40:40.922Z,46.17
2018-06-20T09:43:10.984Z,48.03
2018-06-20T09:45:40.995Z,47.05
2018-06-20T09:48:11.094Z,46.63
2018-06-20T09:50:46.139Z,51.05
2018-06-20T09:53:16.172Z,45.85
2018-06-20T09:55:46.213Z,45.02
2018-06-20T09:58:16.828Z,45.26
2018-06-20T10:00:51.896Z,45.92
2018-06-20T10:03:27.031Z,43.77
2018-06-20T10:06:02.089Z,46.89
2018-06-20T10:08:37.203Z,44.75
2018-06-20T10:11:12.581Z,46.05
2018-06-20T10:13:44.529Z,43.49
2018-06-20T10:16:14.655Z,43.08
2018-06-20T10:18:44.304Z,44.00
2018-06-20T10:21:14.313Z,47.03
2018-06-20T10:23:44.340Z,45.66
2018-06-20T10:26:14.338Z,43.07
2018-06-20T10:28:44.375Z,44.97
2018-06-20T10:31:14.395Z,46.96
2018-06-20T10:33:44.433Z,45.26
2018-06-20T10:36:14.429Z,44.45
2018-06-20T10:38:44.459Z,45.64
2018-06-20T10:41:14.435Z,45.09
2018-06-20T10:43:44.475Z,44.14
2018-06-20T10:46:19.617Z,42.40
2018-06-20T10:48:49.584Z,45.83
2018-06-20T10:51:19.558Z,43.37
2018-06-20T10:53:49.639Z,43.89
2018-06-20T10:56:24.753Z,45.00
2018-06-20T10:59:00.020Z,43.99
2018-06-20T11:01:35.151Z,47.80
2018-06-20T11:04:10.310Z,48.17
2018-06-20T11:06:45.448Z,42.29
2018-06-20T11:09:20.690Z,45.37
2018-06-20T11:11:55.744Z,44.03
2018-06-20T11:14:25.878Z,43.56
2018-06-20T11:16:55.984Z,45.54
2018-06-20T11:19:26.103Z,43.89
2018-06-20T11:21:56.192Z,44.79
2018-06-20T11:24:26.319Z,44.26
2018-06-20T11:26:56.302Z,43.62
2018-06-20T11:29:26.319Z,43.81
2018-06-20T11:31:56.573Z,40.91
2018-06-20T11:34:26.636Z,42.05
2018-06-20T11:36:56.653Z,41.90
2018-06-20T11:39:26.314Z,47.70
2018-06-20T11:41:56.353Z,40.55
2018-06-20T11:44:26.382Z,41.16
2018-06-20T11:47:01.465Z,43.30
2018-06-20T11:49:31.527Z,42.74
2018-06-20T11:52:03.916Z,43.05
2018-06-20T11:54:33.975Z,42.53
2018-06-20T11:57:04.066Z,44.48
2018-06-20T11:59:39.108Z,41.61
2018-06-20T12:02:14.163Z,39.05
2018-06-20T12:04:49.241Z,38.94
2018-06-20T12:07:24.456Z,40.52
2018-06-20T12:09:59.607Z,41.41
2018-06-20T12:12:35.190Z,44.84
2018-06-20T12:15:10.776Z,41.46
2018-06-20T12:17:46.172Z,39.28
2018-06-20T12:20:21.548Z,40.52
2018-06-20T12:22:56.848Z,37.89
2018-06-20T12:25:32.186Z,40.58
2018-06-20T12:28:07.310Z,43.37
2018-06-20T12:30:42.332Z,39.68
2018-06-20T12:33:17.421Z,42.89
2018-06-20T12:35:52.492Z,39.85
2018-06-20T12:38:27.523Z,37.90
2018-06-20T12:41:02.757Z,40.52
2018-06-20T12:43:37.980Z,40.21
2018-06-20T12:46:20.080Z,44.44
2018-06-20T12:48:49.769Z,39.66
2018-06-20T12:51:19.850Z,38.79
2018-06-20T12:53:49.897Z,37.66
2018-06-20T12:56:19.937Z,42.52
2018-06-20T12:58:49.961Z,36.59
2018-06-20T13:01:20.017Z,37.86
2018-06-20T13:03:50.043Z,37.29
2018-06-20T13:06:20.086Z,36.75
2018-06-20T13:08:50.124Z,37.05
2018-06-20T13:11:20.125Z,37.35
2018-06-20T13:13:50.186Z,35.70
2018-06-20T13:16:20.209Z,37.17
2018-06-20T13:19:00.913Z,37.99
2018-06-20T13:21:31.095Z,41.76
2018-06-20T13:24:01.086Z,42.60
2018-06-20T13:26:31.098Z,41.63
2018-06-20T13:29:01.164Z,44.67
2018-06-20T13:31:35.899Z,44.20
2018-06-20T13:34:10.979Z,40.45
2018-06-20T13:36:46.206Z,41.77
2018-06-20T13:39:21.409Z,39.97
2018-06-20T13:41:56.490Z,39.42
2018-06-20T13:44:28.111Z,39.52
2018-06-20T13:47:03.129Z,41.10
2018-06-20T13:49:33.170Z,43.58
2018-06-20T13:52:03.266Z,39.72
2018-06-20T13:54:33.271Z,42.72
2018-06-20T13:57:03.302Z,42.22
2018-06-20T13:59:33.374Z,41.73
2018-06-20T14:02:03.367Z,40.87
2018-06-20T14:04:33.418Z,42.64
2018-06-20T14:07:03.417Z,42.61
2018-06-20T14:09:33.473Z,40.53
2018-06-20T14:12:03.523Z,40.10
2018-06-20T14:14:33.600Z,40.86
2018-06-20T14:17:03.685Z,44.15
2018-06-20T14:19:38.846Z,42.45
2018-06-20T14:22:09.013Z,37.81
2018-06-20T14:24:39.133Z,38.73
2018-06-20T14:27:09.155Z,40.54
2018-06-20T14:29:42.297Z,42.07
2018-06-20T14:32:17.426Z,38.65
2018-06-20T14:34:52.454Z,39.30
2018-06-20T14:37:27.671Z,37.04
2018-06-20T14:40:02.823Z,37.58
2018-06-20T14:42:37.978Z,38.19
2018-06-20T14:45:13.024Z,37.62
2018-06-20T14:47:42.597Z,41.98
2018-06-20T14:50:12.655Z,41.71
2018-06-20T14:52:42.694Z,44.24
2018-06-20T14:55:12.751Z,42.98
2018-06-20T14:57:42.764Z,39.40
2018-06-20T15:00:12.842Z,39.33
2018-06-20T15:02:43.055Z,42.00
2018-06-20T15:05:13.097Z,40.46
2018-06-20T15:07:43.077Z,41.85
2018-06-20T15:10:13.117Z,41.36
2018-06-20T15:12:43.123Z,40.63
2018-06-20T15:15:13.152Z,40.08
2018-06-20T15:17:43.089Z,39.84
2018-06-20T15:20:12.786Z,40.09
2018-06-20T15:22:49.270Z,40.30
2018-06-20T15:25:26.275Z,40.86
2018-06-20T15:28:01.408Z,40.63
2018-06-20T15:30:36.504Z,38.69
2018-06-20T15:33:11.817Z,39.49
2018-06-20T15:35:46.921Z,40.37
2018-06-20T15:38:19.006Z,41.08
2018-06-20T15:40:49.108Z,40.06
2018-06-20T15:43:19.160Z,42.91
2018-06-20T15:45:49.192Z,39.54
2018-06-20T15:48:19.343Z,40.10
2018-06-20T15:50:49.382Z,41.34
2018-06-20T15:53:19.346Z,39.69
2018-06-20T15:55:49.363Z,39.19
2018-06-20T15:58:19.324Z,40.06
2018-06-20T16:00:49.434Z,39.63
2018-06-20T16:03:20.040Z,38.65
2018-06-20T16:05:50.057Z,40.02
2018-06-20T16:08:20.072Z,39.85
2018-06-20T16:10:50.187Z,41.32
2018-06-20T16:13:20.232Z,38.86
2018-06-20T16:15:50.282Z,40.04
2018-06-20T16:18:20.484Z,40.47
2018-06-20T16:20:55.604Z,39.59
2018-06-20T16:23:30.723Z,40.30
2018-06-20T16:26:05.768Z,40.79
2018-06-20T16:28:40.782Z,39.79
2018-06-20T16:31:10.960Z,39.67
2018-06-20T16:33:40.928Z,39.42
2018-06-20T16:36:10.947Z,39.73
2018-06-20T16:38:41.267Z,38.92
2018-06-20T16:41:11.343Z,40.13
2018-06-20T16:43:41.402Z,39.17
2018-06-20T16:46:11.386Z,40.39
2018-06-20T16:48:41.367Z,40.08
2018-06-20T16:51:11.479Z,40.66
2018-06-20T16:53:41.452Z,39.40
2018-06-20T16:56:11.555Z,40.86
2018-06-20T16:58:41.529Z,41.63
2018-06-20T17:01:16.657Z,41.29
2018-06-20T17:03:46.719Z,41.24
2018-06-20T17:06:16.842Z,41.00
2018-06-20T17:08:46.841Z,42.91
2018-06-20T17:11:16.830Z,40.90
2018-06-20T17:13:51.977Z,40.87
2018-06-20T17:16:27.581Z,40.91
2018-06-20T17:19:02.644Z,41.32
2018-06-20T17:21:37.725Z,41.48
2018-06-20T17:25:10.457Z,41.22
2018-06-20T17:27:40.533Z,42.23
2018-06-20T17:30:10.553Z,41.69
2018-06-20T17:32:40.573Z,41.53
2018-06-20T17:35:10.575Z,41.48
2018-06-20T17:37:40.626Z,41.34
2018-06-20T17:40:10.933Z,41.61
2018-06-20T17:42:41.012Z,41.75
2018-06-20T17:45:11.074Z,41.12
2018-06-20T17:47:41.132Z,42.69
2018-06-20T17:50:11.969Z,42.89
2018-06-20T17:52:42.050Z,43.56
2018-06-20T17:55:12.051Z,44.46
2018-06-20T17:57:42.083Z,44.62
2018-06-20T18:00:12.131Z,44.87
2018-06-20T18:02:42.291Z,45.30
2018-06-20T18:05:17.412Z,45.35
2018-06-20T18:07:52.451Z,46.13
2018-06-20T18:10:27.573Z,45.87
2018-06-20T18:13:01.684Z,46.45
2018-06-20T18:15:36.773Z,45.67
2018-06-20T18:18:07.820Z,46.08
2018-06-20T18:20:37.858Z,46.25
2018-06-20T18:23:08.015Z,46.58
2018-06-20T18:25:38.006Z,46.89
2018-06-20T18:28:08.087Z,46.59
2018-06-20T18:30:38.061Z,47.16
2018-06-20T18:33:08.115Z,46.81
2018-06-20T18:35:38.118Z,47.43
2018-06-20T18:38:08.177Z,47.65
2018-06-20T18:40:39.267Z,47.92
2018-06-20T18:43:09.320Z,47.90
2018-06-20T18:45:39.354Z,47.83
2018-06-20T18:48:14.546Z,47.77
2018-06-20T18:50:44.579Z,47.47
2018-06-20T18:53:14.975Z,48.24
2018-06-20T18:55:45.035Z,48.40
2018-06-20T18:58:20.171Z,47.92
2018-06-20T19:00:55.399Z,48.20
2018-06-20T19:03:30.716Z,48.49
2018-06-20T19:06:05.889Z,49.19
2018-06-20T19:08:41.015Z,48.72
2018-06-20T19:11:11.137Z,49.28
2018-06-20T19:13:41.215Z,48.94
2018-06-20T19:16:11.270Z,48.93
2018-06-20T19:18:41.386Z,49.93
2018-06-20T19:21:11.489Z,50.72
2018-06-20T19:23:41.557Z,51.71
2018-06-20T19:26:11.632Z,53.18
2018-06-20T19:28:42.640Z,54.46
2018-06-20T19:31:13.084Z,54.78
2018-06-20T19:33:43.098Z,55.21
2018-06-20T19:36:13.164Z,55.04
2018-06-20T19:38:43.183Z,55.94
2018-06-20T19:41:13.439Z,55.78
2018-06-20T19:43:48.413Z,56.52
2018-06-20T19:46:18.468Z,56.78
2018-06-20T19:48:48.483Z,57.28
2018-06-20T19:51:18.574Z,58.09
2018-06-20T19:53:48.620Z,57.92
2018-06-20T19:56:18.844Z,58.33
2018-06-20T19:58:48.918Z,58.14
2018-06-20T20:01:18.997Z,58.87
2018-06-20T20:03:50.892Z,59.07
2018-06-20T20:06:21.014Z,59.43
2018-06-20T20:08:51.106Z,60.13
2018-06-20T20:11:21.152Z,60.29
2018-06-20T20:13:51.140Z,60.60
2018-06-20T20:16:21.176Z,61.60
2018-06-20T20:18:51.303Z,62.12
2018-06-20T20:21:21.378Z,61.65
2018-06-20T20:23:51.445Z,62.24
2018-06-20T20:26:21.503Z,62.29
2018-06-20T20:28:51.537Z,62.84
2018-06-20T20:31:22.193Z,62.70
2018-06-20T20:33:52.981Z,63.49
2018-06-20T20:36:22.989Z,62.48
2018-06-20T20:38:53.029Z,62.95
2018-06-20T20:41:23.108Z,63.28
2018-06-20T20:43:53.140Z,63.50
2018-06-20T20:46:22.740Z,63.59
2018-06-20T20:48:52.839Z,64.01
2018-06-20T20:51:22.858Z,64.26
2018-06-20T20:53:53.379Z,64.59
2018-06-20T20:56:23.755Z,64.54
2018-06-20T20:58:53.798Z,64.26
2018-06-20T21:01:23.844Z,64.65
2018-06-20T21:03:53.962Z,65.66
2018-06-20T21:06:23.993Z,65.83
2018-06-20T21:08:54.080Z,65.47
2018-06-20T21:11:24.089Z,65.35
2018-06-20T21:13:54.134Z,65.95
2018-06-20T21:16:24.136Z,66.49
2018-06-20T21:18:54.173Z,67.15
2018-06-20T21:21:24.151Z,66.87
2018-06-20T21:23:54.235Z,67.57
2018-06-20T21:26:24.335Z,66.96
2018-06-20T21:28:54.380Z,66.77
2018-06-20T21:31:24.609Z,67.57
2018-06-20T21:33:54.611Z,67.22
2018-06-20T21:36:24.586Z,67.21
2018-06-20T21:38:54.642Z,67.33
2018-06-20T21:41:24.669Z,68.03
2018-06-20T21:43:54.751Z,68.18
2018-06-20T21:46:24.333Z,68.70
2018-06-20T21:48:54.512Z,68.40
2018-06-20T21:51:24.572Z,68.31
2018-06-20T21:53:54.642Z,68.69
2018-06-20T21:56:24.238Z,68.66
2018-06-20T21:58:54.293Z,68.63
2018-06-20T22:01:24.332Z,68.47
2018-06-20T22:03:54.454Z,68.29
2018-06-20T22:06:24.436Z,67.67
2018-06-20T22:08:54.488Z,67.69
2018-06-20T22:11:24.490Z,67.79
2018-06-20T22:13:54.494Z,67.72
2018-06-20T22:16:24.511Z,67.59
2018-06-20T22:18:54.185Z,68.32
2018-06-20T22:21:24.192Z,68.58
2018-06-20T22:23:54.239Z,69.03
2018-06-20T22:26:24.237Z,69.33
2018-06-20T22:28:54.345Z,69.05
2018-06-20T22:31:24.349Z,69.11
2018-06-20T22:33:54.510Z,69.46
2018-06-20T22:36:24.507Z,69.74
2018-06-20T22:38:54.497Z,70.36
2018-06-20T22:41:24.576Z,70.40
2018-06-20T22:43:54.560Z,69.68
2018-06-20T22:46:24.565Z,69.47
2018-06-20T22:48:54.547Z,69.39
2018-06-20T22:51:24.605Z,68.83
2018-06-20T22:53:54.573Z,68.50
2018-06-20T22:56:24.571Z,68.50
2018-06-20T22:58:54.578Z,69.09
2018-06-20T23:01:24.624Z,69.41
2018-06-20T23:03:54.673Z,69.12
2018-06-20T23:06:24.877Z,69.11
2018-06-20T23:08:55.317Z,69.03
2018-06-20T23:11:25.375Z,68.92
2018-06-20T23:13:55.370Z,69.34
2018-06-20T23:16:25.383Z,69.44
2018-06-20T23:18:55.681Z,69.49
2018-06-20T23:21:25.702Z,69.55
2018-06-20T23:23:55.697Z,69.12
2018-06-20T23:26:25.738Z,69.64
2018-06-20T23:28:55.778Z,69.58
2018-06-20T23:31:25.812Z,69.46
2018-06-20T23:33:55.926Z,69.42
2018-06-20T23:36:25.936Z,69.59
2018-06-20T23:38:55.918Z,69.11
2018-06-20T23:41:25.541Z,68.62
2018-06-20T23:43:55.557Z,68.25
2018-06-20T23:46:25.595Z,68.69
2018-06-20T23:48:55.974Z,69.22
2018-06-20T23:51:25.998Z,69.22
2018-06-20T23:53:55.953Z,69.19
2018-06-20T23:56:26.968Z,69.06
2018-06-20T23:58:56.958Z,69.03
